Terminal Aerodrome Forecast
Issued by NWS

Home | Current Version | Previous Version | Text Only | Print | Product List | Glossary On
Versions: 1 2 3 4 5 6 7 8 9 10 11 12 13 14 15
000
FTUS44 KLZK 250520
TAFHRO
TAF
KHRO 250520Z 2506/2606 17004KT P6SM BKN090
      TEMPO 2509/2513 4SM BR
     FM251500 19006KT P6SM SCT060
     FM260000 16004KT P6SM FEW250=

USA.gov is the U.S. government's official web portal to all federal, state and local government web resources and services.